createdAt,value
2023-03-10T16:30:32.646Z,19.31
2023-03-10T16:33:05.166Z,19.11
2023-03-10T16:35:39.206Z,18.93
2023-03-10T16:38:11.581Z,18.61
2023-03-10T16:40:50.257Z,18.16
2023-03-10T16:43:23.372Z,17.82
2023-03-10T16:46:05.206Z,17.53
2023-03-10T16:48:42.128Z,17.30
2023-03-10T16:51:27.733Z,17.11
2023-03-10T16:54:02.267Z,16.84
2023-03-10T16:56:37.923Z,16.62
2023-03-10T16:59:13.304Z,16.41
2023-03-10T17:01:45.762Z,16.18
2023-03-10T17:04:18.611Z,15.94
2023-03-10T17:06:51.172Z,15.66
2023-03-10T17:09:23.680Z,15.44
2023-03-10T17:11:57.407Z,15.26
2023-03-10T17:14:30.780Z,15.06
2023-03-10T17:17:04.298Z,14.85
2023-03-10T17:19:37.724Z,14.68
2023-03-10T17:22:10.064Z,14.49
2023-03-10T17:24:43.417Z,14.30
2023-03-10T17:27:16.477Z,14.17
2023-03-10T17:29:49.760Z,14.13
2023-03-10T17:32:22.452Z,14.13
2023-03-10T17:34:55.221Z,14.12
2023-03-10T17:37:28.034Z,14.08
2023-03-10T17:40:00.922Z,14.01
2023-03-10T17:42:33.816Z,13.95
2023-03-10T17:45:07.527Z,13.92
2023-03-10T17:47:41.249Z,13.90
2023-03-10T17:50:14.728Z,13.89
2023-03-10T17:52:50.274Z,13.85
2023-03-10T17:55:23.262Z,13.87
2023-03-10T17:57:55.897Z,13.85
2023-03-10T18:00:34.414Z,13.88
2023-03-10T18:03:22.297Z,14.01
2023-03-10T18:05:56.072Z,14.09
2023-03-10T18:08:31.295Z,14.19
2023-03-10T18:11:05.943Z,14.34
2023-03-10T18:13:39.106Z,14.56
2023-03-10T18:16:18.886Z,14.64
2023-03-10T18:18:52.281Z,14.70
2023-03-10T18:21:25.938Z,14.72
2023-03-10T18:24:04.045Z,14.87
2023-03-10T18:26:38.234Z,14.99
2023-03-10T18:29:10.941Z,15.04
2023-03-10T18:31:43.816Z,14.91
2023-03-10T18:34:23.794Z,14.81
2023-03-10T18:36:56.390Z,14.87
2023-03-10T18:39:29.229Z,15.03
2023-03-10T18:42:02.368Z,15.21
2023-03-10T18:44:35.144Z,15.31
2023-03-10T18:47:08.052Z,15.26
2023-03-10T18:49:41.219Z,15.17
2023-03-10T18:52:16.672Z,15.19
2023-03-10T18:54:52.468Z,15.25
2023-03-10T18:57:26.139Z,15.33
2023-03-10T19:00:00.845Z,15.48
2023-03-10T19:02:35.625Z,15.64
2023-03-10T19:05:11.336Z,15.72
2023-03-10T19:07:44.008Z,15.73
2023-03-10T19:10:18.603Z,15.78
2023-03-10T19:12:51.309Z,15.87
2023-03-10T19:15:31.929Z,15.98
2023-03-10T19:18:04.775Z,16.07
2023-03-10T19:20:37.461Z,16.15
2023-03-10T19:23:10.230Z,16.12
2023-03-10T19:25:43.047Z,16.11
2023-03-10T19:28:15.788Z,16.13
2023-03-10T19:30:48.484Z,16.19
2023-03-10T19:33:21.644Z,16.34
2023-03-10T19:36:03.251Z,16.47
2023-03-10T19:38:37.613Z,16.61
2023-03-10T19:41:14.616Z,16.70
2023-03-10T19:43:49.108Z,16.77
2023-03-10T19:46:22.438Z,16.77
2023-03-10T19:48:55.491Z,16.80
2023-03-10T19:51:30.421Z,16.89
2023-03-10T19:54:04.413Z,16.96
2023-03-10T19:56:37.324Z,17.03
2023-03-10T19:59:10.148Z,17.08
2023-03-10T20:01:44.188Z,17.11
2023-03-10T20:04:17.261Z,17.16
2023-03-10T20:06:50.015Z,17.22
2023-03-10T20:09:23.028Z,17.17
2023-03-10T20:11:57.129Z,17.12
2023-03-10T20:14:29.737Z,17.09
2023-03-10T20:17:02.358Z,17.09
2023-03-10T20:19:35.237Z,17.04
2023-03-10T20:22:07.913Z,17.04
2023-03-10T20:24:40.587Z,17.03
2023-03-10T20:27:13.642Z,17.02
2023-03-10T20:29:46.338Z,17.00
2023-03-10T20:32:19.281Z,16.94
2023-03-10T20:34:52.148Z,16.87
2023-03-10T20:37:24.780Z,16.85
2023-03-10T20:39:57.509Z,16.85
2023-03-10T20:42:30.629Z,16.82
2023-03-10T20:45:03.731Z,16.79
2023-03-10T20:47:36.695Z,16.77
2023-03-10T20:50:12.586Z,16.74
2023-03-10T20:52:46.665Z,16.70
2023-03-10T20:55:23.243Z,16.67
2023-03-10T20:57:58.219Z,16.64
2023-03-10T21:00:31.844Z,16.59
2023-03-10T21:03:04.607Z,16.55
2023-03-10T21:05:37.224Z,16.50
2023-03-10T21:08:10.534Z,16.45
2023-03-10T21:10:44.755Z,16.40
2023-03-10T21:13:17.733Z,16.38
2023-03-10T21:15:50.496Z,16.34
2023-03-10T21:18:23.283Z,16.31
2023-03-10T21:20:56.117Z,16.30
2023-03-10T21:23:28.878Z,16.26
2023-03-10T21:26:01.427Z,16.23
2023-03-10T21:28:34.051Z,16.17
2023-03-10T21:31:07.203Z,16.09
2023-03-10T21:33:41.889Z,15.98
2023-03-10T21:36:17.895Z,15.93
2023-03-10T21:38:51.938Z,15.93
2023-03-10T21:41:26.622Z,15.93
2023-03-10T21:44:00.529Z,15.91
2023-03-10T21:46:33.219Z,15.85
2023-03-10T21:49:06.306Z,15.80
2023-03-10T21:51:39.282Z,15.78
2023-03-10T21:54:12.942Z,15.73
2023-03-10T21:56:45.783Z,15.65
2023-03-10T21:59:18.475Z,15.60
2023-03-10T22:01:51.504Z,15.57
2023-03-10T22:04:24.174Z,15.47
2023-03-10T22:06:56.934Z,15.39
2023-03-10T22:09:31.423Z,15.35
2023-03-10T22:12:12.997Z,15.35
2023-03-10T22:14:45.848Z,15.36
2023-03-10T22:17:19.108Z,15.36
2023-03-10T22:19:54.929Z,15.29
2023-03-10T22:22:27.724Z,15.23
2023-03-10T22:25:00.535Z,15.20
2023-03-10T22:27:33.247Z,15.20
2023-03-10T22:30:08.188Z,15.21
2023-03-10T22:32:41.028Z,15.22
2023-03-10T22:35:13.965Z,15.14
2023-03-10T22:37:46.904Z,14.99
2023-03-10T22:40:22.226Z,15.00
2023-03-10T22:42:55.676Z,15.05
2023-03-10T22:45:30.804Z,15.13
2023-03-10T22:48:06.292Z,15.19
2023-03-10T22:50:40.576Z,15.18
2023-03-10T22:53:16.873Z,15.16
2023-03-10T22:55:50.810Z,15.14
2023-03-10T22:58:23.631Z,15.10
2023-03-10T23:00:56.591Z,15.09
2023-03-10T23:03:29.345Z,15.06
2023-03-10T23:06:04.019Z,15.02
2023-03-10T23:08:39.452Z,14.91
2023-03-10T23:11:15.699Z,14.79
2023-03-10T23:13:48.349Z,14.74
2023-03-10T23:16:21.020Z,14.77
2023-03-10T23:18:53.914Z,14.81
2023-03-10T23:21:26.630Z,14.85
2023-03-10T23:23:59.373Z,14.84
2023-03-10T23:26:35.454Z,14.83
2023-03-10T23:29:08.195Z,14.85
2023-03-10T23:31:41.036Z,14.83
2023-03-10T23:34:13.877Z,14.71
2023-03-10T23:36:46.596Z,14.68
2023-03-10T23:39:19.215Z,14.67
2023-03-10T23:41:52.071Z,14.69
2023-03-10T23:44:24.755Z,14.69
2023-03-10T23:46:57.372Z,14.73
2023-03-10T23:49:30.433Z,14.76
2023-03-10T23:52:03.298Z,14.79
2023-03-10T23:54:35.970Z,14.80
2023-03-10T23:57:08.706Z,14.77
2023-03-10T23:59:41.760Z,14.66
